Absaraka, North Dakota
Current Conditions -  °F | °C
As of 2:53 PM on Saturday 20 Dec 2014 (Local Time) from KFAR Reporting Station
Haze Haze  
Wind Chill: -7°   Ceiling: 600
Heat Index: -1°   Visibility: 4mi
Dew Point: -3°   Wind: 18mph
Humidity: 85%   Direction: 180°S
Pressure: 29.97"   Gusts: NA
Location:  46.98°N, 97.39°W
Report Text: KFAR 202053Z 18016KT 4SM BR OVC006 M01/M03 A2997 RMK AO2 SLP161 T10061028 56012
Loading
Personal Weather Stations






























Interactive Weather Map New forecast layout! Learn more

10-Day Weather Forecast

Advertisements
Track Severe Weather on mobile